Time;durP1;ratioP1;P1;durP2;ratioP2;P2;SDS_P1;SDS_P2;PMS_P1;PMS_P2;Temp;Humidity;BMP_temperature;BMP_pressure;BME280_temperature;BME280_humidity;BME280_pressure;Samples;Min_cycle;Max_cycle;Signal;HPM_P1;HPM_P2
2023/06/23 00:01:51;;;;;;;17.00;12.20;;;;;;;20.65;57.92;98437.25;436370;1250;112265;-41
2023/06/23 00:11:58;;;;;;;20.40;13.30;;;;;;;20.95;58.53;98429.36;436163;1253;108435;-43
2023/06/23 00:22:04;;;;;;;14.30;12.70;;;;;;;21.24;58.48;98426.59;436173;1254;99221;-42
2023/06/23 00:32:11;;;;;;;14.00;12.50;;;;;;;21.31;58.65;98409.17;436135;1253;107418;-42
2023/06/23 00:42:19;;;;;;;15.60;13.80;;;;;;;21.20;59.06;98395.90;436337;1248;99234;-42
2023/06/23 00:52:25;;;;;;;;;;;;;;;21.30;59.32;98395.30;436274;1253;111363;-41
2023/06/23 01:02:32;;;;;;;14.50;13.00;;;;;;;21.28;59.45;98373.04;436112;1253;107160;-42
2023/06/23 01:12:38;;;;;;;19.20;14.80;;;;;;;21.30;59.70;98352.25;437029;1247;98001;-41
2023/06/23 01:32:49;;;;;;;16.90;15.00;;;;;;;21.28;60.09;98316.83;436386;1253;99215;-43
2023/06/23 01:53:05;;;;;;;18.20;15.10;;;;;;;21.24;60.85;98277.44;436330;1254;109055;-44
2023/06/23 02:03:14;;;;;;;16.60;13.50;;;;;;;21.27;61.24;98263.56;436245;1253;98566;-45
2023/06/23 02:13:23;;;;;;;16.20;13.20;;;;;;;21.33;61.23;98264.76;436414;1248;107911;-43
2023/06/23 02:23:31;;;;;;;15.30;12.70;;;;;;;21.17;61.46;98283.26;436438;1247;98867;-43
2023/06/23 02:33:37;;;;;;;;;;;;;;;21.21;61.50;98319.11;436308;1253;111454;-42
2023/06/23 02:43:50;;;;;;;13.90;11.20;;;;;;;21.02;61.95;98320.35;436344;1250;108531;-43
2023/06/23 02:54:01;;;;;;;16.90;13.00;;;;;;;21.25;62.18;98367.88;436234;1248;99276;-43
2023/06/23 03:04:11;;;;;;;15.90;11.60;;;;;;;21.37;62.16;98378.30;436380;1248;107993;-42
2023/06/23 03:14:19;;;;;;;13.50;12.10;;;;;;;21.15;62.42;98349.83;436330;1252;99107;-44
2023/06/23 03:34:35;;;;;;;13.00;11.60;;;;;;;21.21;62.93;98290.31;436269;1253;107900;-44
2023/06/23 03:44:42;;;;;;;14.00;12.20;;;;;;;21.37;63.27;98288.15;436501;1248;99224;-42
2023/06/23 03:54:54;;;;;;;14.00;12.50;;;;;;;21.42;63.80;98235.91;436294;1248;108422;-43
2023/06/23 04:05:03;;;;;;;15.80;12.20;;;;;;;21.51;64.25;98233.78;436234;1247;99247;-42
2023/06/23 04:15:08;;;;;;;19.30;11.30;;;;;;;21.78;63.94;98225.56;436281;1253;111436;-43
2023/06/23 04:25:16;;;;;;;14.40;12.40;;;;;;;21.98;63.83;98214.61;436430;1248;108315;-44
2023/06/23 04:35:25;;;;;;;18.80;12.50;;;;;;;22.04;63.72;98205.50;436425;1254;99365;-42
2023/06/23 04:45:36;;;;;;;19.60;12.00;;;;;;;22.02;63.77;98218.30;436407;1253;109677;-41
2023/06/23 04:55:48;;;;;;;13.50;11.10;;;;;;;22.05;64.16;98208.04;436243;1250;98861;-42
2023/06/23 05:05:57;;;;;;;34.80;16.20;;;;;;;21.88;64.74;98394.24;436285;1253;111357;-44
2023/06/23 05:16:04;;;;;;;20.40;10.60;;;;;;;20.88;68.35;98325.48;436489;1253;107477;-44
2023/06/23 05:26:14;;;;;;;12.90;7.80;;;;;;;19.86;71.42;98240.85;436467;1252;99234;-45
2023/06/23 05:36:22;;;;;;;15.50;7.70;;;;;;;19.87;71.15;98249.51;436244;1252;108307;-46
2023/06/23 05:56:41;;;;;;;17.70;9.40;;;;;;;19.44;73.17;98360.46;436646;1261;110645;-43
2023/06/23 06:06:49;;;;;;;20.30;10.60;;;;;;;19.75;73.24;98372.36;436319;1253;107718;-44
2023/06/23 06:16:58;;;;;;;21.90;11.30;;;;;;;19.73;73.13;98336.55;436396;1247;99311;-44
2023/06/23 06:27:04;;;;;;;19.50;11.10;;;;;;;19.56;73.36;98312.11;436235;1253;105902;-45
2023/06/23 06:47:16;;;;;;;23.00;12.30;;;;;;;19.17;74.93;98333.23;436282;1253;111278;-45
2023/06/23 06:57:25;;;;;;;24.50;12.70;;;;;;;19.21;75.03;98313.29;436343;1253;108552;-44
2023/06/23 07:07:30;;;;;;;;;;;;;;;19.17;75.97;98367.86;436242;1252;99867;-43
2023/06/23 07:17:37;;;;;;;22.80;14.60;;;;;;;19.15;77.04;98364.58;436147;1253;108619;-43
2023/06/23 07:37:53;;;;;;;18.70;12.60;;;;;;;19.46;76.87;98334.80;436431;1249;112093;-43
2023/06/23 07:48:00;;;;;;;15.50;12.20;;;;;;;19.72;76.77;98332.71;436224;1253;108734;-42
2023/06/23 07:58:07;;;;;;;18.40;11.90;;;;;;;19.98;76.80;98344.61;436352;1252;99336;-42
2023/06/23 08:08:13;;;;;;;15.50;12.20;;;;;;;20.07;76.67;98338.09;436260;1252;108397;-43
2023/06/23 08:18:20;;;;;;;22.80;12.10;;;;;;;20.34;77.00;98321.66;436292;1253;98572;-42
2023/06/23 08:28:28;;;;;;;;;;;;;;;20.72;77.09;98315.71;436457;1253;111260;-42
2023/06/23 08:38:36;;;;;;;21.60;15.70;;;;;;;21.05;77.24;98331.63;436279;1248;107350;-43
2023/06/23 08:48:46;;;;;;;24.10;15.80;;;;;;;21.42;77.14;98346.19;436280;1253;98709;-42
2023/06/23 08:58:54;;;;;;;23.40;15.00;;;;;;;21.63;77.54;98350.00;436426;1248;108899;-42
2023/06/23 09:09:02;;;;;;;23.60;15.20;;;;;;;22.06;77.88;98368.45;436363;1248;99205;-41
2023/06/23 09:19:10;;;;;;;19.00;12.60;;;;;;;22.70;77.46;98384.73;436430;1251;111221;-42
2023/06/23 09:29:16;;;;;;;19.40;12.30;;;;;;;23.57;76.96;98385.00;436206;1252;107850;-41
2023/06/23 09:39:23;;;;;;;21.20;14.80;;;;;;;24.58;76.42;98363.81;436478;1248;99283;-42
2023/06/23 09:49:37;;;;;;;18.40;11.90;;;;;;;25.23;75.06;98368.91;436337;1247;107645;-40
2023/06/23 09:59:46;;;;;;;19.20;11.80;;;;;;;25.86;74.13;98375.23;436350;1247;99299;-40
2023/06/23 10:09:55;;;;;;;19.80;11.50;;;;;;;26.38;72.97;98372.50;436260;1253;111696;-41
2023/06/23 10:20:22;;;;;;;13.50;10.60;;;;;;;27.03;72.17;98375.33;436383;1248;108638;-41
2023/06/23 10:50:46;;;;;;;19.10;12.90;;;;;;;27.66;69.11;98396.27;436339;1248;98058;-44
2023/06/23 11:00:59;;;;;;;19.80;14.50;;;;;;;27.92;68.53;98403.86;436445;1253;112174;-40
2023/06/23 11:11:09;;;;;;;18.40;14.60;;;;;;;27.69;67.19;98390.30;436319;1249;107649;-41
2023/06/23 11:21:17;;;;;;;16.90;14.50;;;;;;;27.77;66.99;98393.64;436371;1253;99314;-41
2023/06/23 11:41:32;;;;;;;17.40;12.50;;;;;;;27.88;65.50;98389.64;436394;1248;98503;-41
2023/06/23 11:51:39;;;;;;;14.30;11.00;;;;;;;27.97;64.83;98392.21;436450;1253;111736;-41
2023/06/23 12:01:46;;;;;;;15.10;10.40;;;;;;;28.07;63.78;98385.85;436321;1248;108213;-41
2023/06/23 12:11:54;;;;;;;12.90;10.50;;;;;;;28.50;62.60;98379.26;436401;1253;99101;-42
2023/06/23 12:22:02;;;;;;;13.30;9.30;;;;;;;29.27;61.26;98368.89;436389;1253;108233;-41
2023/06/23 12:32:10;;;;;;;10.20;8.00;;;;;;;29.06;59.79;98370.10;436408;1248;98344;-41
2023/06/23 12:52:25;;;;;;;10.80;8.30;;;;;;;28.91;58.76;98372.67;436292;1248;108979;-43
2023/06/23 13:02:32;;;;;;;6.80;6.20;;;;;;;28.97;57.87;98383.30;436415;1254;97979;-41
2023/06/23 13:12:40;;;;;;;6.20;5.70;;;;;;;28.99;57.09;98359.93;436450;1251;107410;-42
2023/06/23 13:22:47;;;;;;;12.00;7.10;;;;;;;29.16;56.02;98350.71;436320;1247;98906;-42
2023/06/23 13:32:54;;;;;;;7.70;5.60;;;;;;;29.16;56.21;98355.76;436308;1252;112407;-42
2023/06/23 13:53:07;;;;;;;6.90;5.10;;;;;;;29.11;55.30;98383.98;436499;1257;98003;-43
2023/06/23 14:03:15;;;;;;;9.20;5.10;;;;;;;29.20;54.91;98391.70;436266;1253;108501;-41
2023/06/23 14:13:23;;;;;;;8.70;4.80;;;;;;;28.66;54.73;98410.27;436383;1251;99237;-40
2023/06/23 14:23:30;;;;;;;6.60;5.70;;;;;;;27.71;55.15;98433.12;436252;1248;111210;-41
2023/06/23 14:33:38;;;;;;;17.60;8.20;;;;;;;26.88;56.97;98460.16;436303;1261;107822;-42
2023/06/23 14:43:45;;;;;;;8.00;6.30;;;;;;;26.47;59.13;98489.39;436334;1261;99317;-41
2023/06/23 14:53:52;;;;;;;11.10;7.00;;;;;;;26.40;60.33;98489.23;436328;1253;108064;-42
2023/06/23 15:04:00;;;;;;;10.40;6.30;;;;;;;26.28;61.17;98480.98;436285;1254;101541;-42
2023/06/23 15:14:07;;;;;;;11.00;7.30;;;;;;;26.10;61.48;98470.17;436451;1253;112046;-41
2023/06/23 15:24:17;;;;;;;10.50;7.10;;;;;;;26.19;61.58;98451.73;435950;1250;453957;-42
2023/06/23 15:34:26;;;;;;;13.90;6.80;;;;;;;26.14;61.92;98453.27;436407;1248;97963;-42
2023/06/23 15:44:34;;;;;;;7.70;6.10;;;;;;;26.23;62.08;98433.30;436253;1261;106947;-42
2023/06/23 15:54:41;;;;;;;10.50;6.50;;;;;;;26.36;62.23;98422.55;436329;1254;101470;-42
2023/06/23 16:04:49;;;;;;;7.80;6.40;;;;;;;26.58;62.30;98424.98;436370;1261;110825;-41
2023/06/23 16:14:58;;;;;;;10.80;5.30;;;;;;;26.59;61.68;98434.31;436325;1254;108041;-41
2023/06/23 16:25:04;;;;;;;10.20;6.00;;;;;;;26.56;61.26;98446.38;436296;1254;99126;-41
2023/06/23 16:35:09;;;;;;;7.20;5.80;;;;;;;26.42;61.03;98434.59;436282;1248;107604;-42
2023/06/23 16:45:15;;;;;;;8.10;6.20;;;;;;;26.42;61.25;98432.90;436216;1251;99317;-41
2023/06/23 16:55:23;;;;;;;8.30;6.20;;;;;;;26.39;61.48;98418.25;436575;1253;111747;-42
2023/06/23 17:05:30;;;;;;;8.50;5.80;;;;;;;26.37;61.41;98424.32;436302;1254;109579;-42
2023/06/23 17:15:38;;;;;;;8.20;7.30;;;;;;;26.27;62.01;98425.73;436500;1248;99234;-42
2023/06/23 17:25:46;;;;;;;7.70;5.60;;;;;;;26.16;62.19;98402.17;436222;1253;108770;-42
2023/06/23 17:35:53;;;;;;;9.90;6.00;;;;;;;25.86;61.64;98384.66;436270;1248;99330;-42
2023/06/23 17:46:01;;;;;;;9.50;6.80;;;;;;;25.63;61.90;98400.29;436383;1254;112152;-43
2023/06/23 17:56:08;;;;;;;9.60;7.50;;;;;;;25.38;62.04;98403.64;436151;1250;108085;-41
2023/06/23 18:06:15;;;;;;;11.10;7.80;;;;;;;25.10;62.63;98426.66;436388;1251;99228;-42
2023/06/23 18:16:23;;;;;;;15.80;7.60;;;;;;;24.86;62.96;98428.48;436245;1253;107345;-42
2023/06/23 18:26:30;;;;;;;14.00;5.10;;;;;;;24.57;64.03;98474.88;436302;1248;97906;-41
2023/06/23 18:36:36;;;;;;;;;;;;;;;23.08;66.63;98539.37;436408;1253;111835;-42
2023/06/23 18:46:43;;;;;;;11.20;4.30;;;;;;;21.96;68.97;98538.33;436463;1253;107884;-43
2023/06/23 18:56:50;;;;;;;9.80;5.00;;;;;;;21.52;71.22;98536.08;436235;1254;98823;-44
2023/06/23 19:06:58;;;;;;;8.10;4.30;;;;;;;21.30;72.22;98533.96;436202;1248;109641;-44
2023/06/23 19:17:06;;;;;;;6.80;5.40;;;;;;;21.14;72.63;98563.52;436321;1254;97984;-42
2023/06/23 19:27:12;;;;;;;9.10;6.00;;;;;;;20.93;73.22;98587.40;436425;1254;111167;-42
2023/06/23 19:37:19;;;;;;;10.10;7.20;;;;;;;20.84;73.70;98590.84;436227;1252;109421;-43
2023/06/23 19:47:27;;;;;;;9.60;7.30;;;;;;;20.73;73.93;98588.84;436389;1247;99202;-42
2023/06/23 20:07:40;;;;;;;11.60;8.00;;;;;;;20.69;74.95;98618.47;436247;1254;99247;-42
2023/06/23 20:17:48;;;;;;;9.30;8.00;;;;;;;20.65;75.34;98635.08;436311;1255;112171;-42
2023/06/23 20:27:55;;;;;;;11.50;7.50;;;;;;;20.68;75.54;98629.98;436316;1251;107394;-43
2023/06/23 20:38:03;;;;;;;9.10;8.10;;;;;;;20.59;75.76;98632.81;436383;1254;97972;-42
2023/06/23 20:48:09;;;;;;;;;;;;;;;20.54;76.09;98649.67;436376;1253;108548;-42
2023/06/23 20:58:17;;;;;;;5.40;4.40;;;;;;;20.45;76.13;98660.02;436229;1254;99320;-42
2023/06/23 21:08:23;;;;;;;5.50;5.00;;;;;;;20.37;76.41;98654.23;436238;1247;111424;-42
2023/06/23 21:18:31;;;;;;;8.90;6.00;;;;;;;20.31;76.87;98648.18;436213;1254;109250;-41
2023/06/23 21:28:39;;;;;;;10.70;9.40;;;;;;;20.27;77.24;98651.47;436253;1254;99233;-41
2023/06/23 21:38:46;;;;;;;11.30;7.90;;;;;;;20.27;77.67;98647.17;436138;1254;107616;-41
2023/06/23 21:59:01;;;;;;;13.00;10.60;;;;;;;20.18;78.33;98670.83;436380;1248;111690;-42
2023/06/23 22:09:07;;;;;;;20.00;13.00;;;;;;;20.15;78.69;98677.96;436039;1250;108287;-41
2023/06/23 22:19:14;;;;;;;19.00;14.10;;;;;;;20.16;78.90;98686.70;436202;1254;99214;-41
2023/06/23 22:29:21;;;;;;;24.10;15.30;;;;;;;20.08;79.03;98707.05;436124;1253;107625;-41
2023/06/23 22:39:28;;;;;;;22.30;16.70;;;;;;;20.07;79.30;98715.27;436189;1250;98703;-40
2023/06/23 22:49:35;;;;;;;23.40;17.60;;;;;;;20.05;79.46;98724.32;436167;1253;111893;-41
2023/06/23 22:59:41;;;;;;;29.10;19.30;;;;;;;19.91;79.48;98724.25;435941;1253;108020;-40
2023/06/23 23:09:48;;;;;;;27.90;18.50;;;;;;;19.89;79.56;98721.37;436170;1253;99342;-40
2023/06/23 23:19:56;;;;;;;27.40;20.70;;;;;;;19.78;79.58;98704.27;436403;1250;109410;-39
2023/06/23 23:30:06;;;;;;;28.90;22.10;;;;;;;19.72;79.76;98699.00;436193;1253;99148;-41
2023/06/23 23:40:16;;;;;;;31.10;22.40;;;;;;;19.59;79.72;98703.96;436247;1253;110547;-40
2023/06/23 23:50:24;;;;;;;29.40;23.10;;;;;;;19.44;79.87;98707.44;436102;1254;107353;-41
